createdAt,value
2023-01-01T00:00:50.307Z,69.95
2023-01-01T00:03:38.956Z,67.28
2023-01-01T00:06:14.030Z,67.68
2023-01-01T00:08:42.741Z,67.00
2023-01-01T00:11:11.873Z,76.00
2023-01-01T00:16:14.643Z,64.25
2023-01-01T00:18:42.686Z,65.97
2023-01-01T00:21:17.709Z,64.88
2023-01-01T00:23:45.768Z,66.30
2023-01-01T00:26:17.116Z,69.85
2023-01-01T00:28:46.192Z,70.75
2023-01-01T00:31:20.657Z,64.57
2023-01-01T00:33:55.166Z,66.65
2023-01-01T00:36:25.375Z,55.97
2023-01-01T00:38:53.684Z,51.35
2023-01-01T00:41:22.190Z,49.78
2023-01-01T00:43:50.083Z,52.75
2023-01-01T00:46:17.733Z,55.22
2023-01-01T00:48:46.396Z,50.92
2023-01-01T00:51:15.010Z,47.85
2023-01-01T00:53:43.080Z,43.75
2023-01-01T00:56:10.874Z,39.80
2023-01-01T00:58:38.836Z,29.75
2023-01-01T01:01:06.861Z,38.95
2023-01-01T01:03:34.906Z,32.05
2023-01-01T01:06:05.097Z,24.23
2023-01-01T01:08:35.534Z,25.55
2023-01-01T01:11:14.934Z,24.90
2023-01-01T01:13:45.576Z,24.08
2023-01-01T01:16:22.128Z,26.17
2023-01-01T01:18:56.163Z,31.58
2023-01-01T01:21:25.273Z,31.58
2023-01-01T01:23:54.402Z,34.10
2023-01-01T01:26:26.480Z,35.47
2023-01-01T01:28:54.631Z,35.47
2023-01-01T01:31:25.384Z,35.15
2023-01-01T01:33:53.354Z,33.95
2023-01-01T01:36:21.472Z,31.85
2023-01-01T01:38:49.556Z,34.23
2023-01-01T01:41:27.867Z,33.65
2023-01-01T01:44:02.353Z,26.48
2023-01-01T01:46:44.475Z,24.38
2023-01-01T01:49:28.996Z,24.52
2023-01-01T01:51:57.837Z,24.77
2023-01-01T01:54:27.786Z,26.85
2023-01-01T01:57:03.750Z,48.17
2023-01-01T01:59:38.507Z,40.90
2023-01-01T02:02:37.575Z,27.05
2023-01-01T02:05:06.739Z,28.25
2023-01-01T02:07:36.250Z,29.50
2023-01-01T02:10:05.178Z,27.85
2023-01-01T02:12:33.016Z,25.83
2023-01-01T02:15:01.324Z,23.55
2023-01-01T02:17:38.979Z,21.23
2023-01-01T02:20:38.322Z,156.90
2023-01-01T02:23:33.128Z,112.07
2023-01-01T02:26:40.604Z,30.73
2023-01-01T02:29:36.930Z,23.35
2023-01-01T02:32:14.578Z,42.63
2023-01-01T02:35:28.706Z,26.05
2023-01-01T02:38:03.903Z,27.00
2023-01-01T02:40:34.445Z,36.85
2023-01-01T02:43:03.976Z,32.35
2023-01-01T02:45:32.303Z,35.35
2023-01-01T02:48:06.640Z,29.33
2023-01-01T02:50:35.376Z,30.80
2023-01-01T02:53:28.904Z,30.30
2023-01-01T02:56:17.042Z,43.83
2023-01-01T02:59:18.159Z,38.63
2023-01-01T03:02:23.067Z,40.63
2023-01-01T03:05:21.659Z,55.97
2023-01-01T03:08:17.293Z,59.03
2023-01-01T03:11:03.865Z,55.97
2023-01-01T03:14:25.105Z,58.97
2023-01-01T03:17:36.161Z,52.55
2023-01-01T03:20:12.051Z,45.13
2023-01-01T03:25:19.741Z,44.85
2023-01-01T03:27:53.013Z,42.72
2023-01-01T03:30:21.711Z,44.75
2023-01-01T03:33:03.405Z,45.22
2023-01-01T03:35:43.832Z,47.97
2023-01-01T03:38:28.431Z,49.10
2023-01-01T03:41:20.895Z,52.97
2023-01-01T03:44:14.044Z,59.40
2023-01-01T03:46:42.535Z,61.30
2023-01-01T03:49:13.140Z,56.00
2023-01-01T03:52:08.114Z,54.60
2023-01-01T03:54:41.736Z,49.53
2023-01-01T03:57:26.541Z,43.70
2023-01-01T04:00:16.707Z,45.10
2023-01-01T04:03:08.453Z,38.10
2023-01-01T04:05:40.701Z,22.38
2023-01-01T04:08:10.598Z,16.92
2023-01-01T04:10:44.933Z,13.13
2023-01-01T04:13:12.637Z,13.88
2023-01-01T04:15:41.018Z,18.30
2023-01-01T04:18:09.329Z,17.70
2023-01-01T04:20:37.346Z,19.13
2023-01-01T04:23:05.150Z,15.43
2023-01-01T04:25:33.061Z,11.27
2023-01-01T04:28:03.586Z,10.82
2023-01-01T04:30:31.653Z,10.93
2023-01-01T04:32:59.208Z,10.85
2023-01-01T04:35:27.087Z,9.70
2023-01-01T04:37:54.691Z,10.13
2023-01-01T04:40:22.622Z,10.68
2023-01-01T04:42:53.487Z,9.10
2023-01-01T04:45:21.503Z,7.18
2023-01-01T04:47:49.185Z,5.20
2023-01-01T04:50:17.203Z,5.60
2023-01-01T04:52:44.911Z,4.80
2023-01-01T04:55:12.912Z,5.43
2023-01-01T04:57:40.616Z,6.60
2023-01-01T05:00:09.599Z,4.97
2023-01-01T05:02:37.312Z,5.07
2023-01-01T05:05:05.683Z,4.82
2023-01-01T05:07:33.992Z,6.10
2023-01-01T05:10:01.893Z,5.43
2023-01-01T05:12:30.480Z,8.82
2023-01-01T05:14:58.277Z,10.40
2023-01-01T05:17:25.933Z,10.25
2023-01-01T05:19:53.862Z,10.85
2023-01-01T05:22:21.519Z,10.02
2023-01-01T05:24:49.409Z,10.00
2023-01-01T05:27:17.077Z,8.25
2023-01-01T05:29:44.930Z,7.28
2023-01-01T05:37:05.561Z,8.05
2023-01-01T05:39:33.332Z,8.18
2023-01-01T05:42:00.870Z,5.70
2023-01-01T05:44:28.694Z,5.90
2023-01-01T05:46:56.226Z,6.13
2023-01-01T05:49:24.178Z,7.57
2023-01-01T05:52:10.016Z,7.10
2023-01-01T05:54:37.844Z,6.55
2023-01-01T05:57:05.357Z,6.35
2023-01-01T05:59:33.159Z,5.07
2023-01-01T06:02:00.785Z,5.35
2023-01-01T06:04:28.738Z,5.13
2023-01-01T06:06:56.337Z,4.68
2023-01-01T06:09:24.131Z,4.28
2023-01-01T06:11:51.619Z,3.85
2023-01-01T06:14:19.605Z,5.30
2023-01-01T06:16:47.174Z,5.28
2023-01-01T06:19:15.027Z,5.13
2023-01-01T06:21:42.507Z,4.57
2023-01-01T06:24:10.330Z,4.43
2023-01-01T06:26:38.626Z,5.45
2023-01-01T06:29:06.596Z,11.03
2023-01-01T06:31:38.544Z,13.73
2023-01-01T06:34:09.468Z,21.48
2023-01-01T06:36:36.999Z,19.77
2023-01-01T06:39:05.432Z,15.15
2023-01-01T06:41:32.936Z,26.55
2023-01-01T06:44:02.123Z,26.45
2023-01-01T06:46:34.081Z,33.10
2023-01-01T06:49:06.665Z,32.90
2023-01-01T06:51:39.991Z,31.70
2023-01-01T06:54:09.157Z,28.60
2023-01-01T06:56:37.762Z,37.95
2023-01-01T06:59:06.247Z,43.97
2023-01-01T07:01:36.884Z,44.35
2023-01-01T07:04:10.503Z,47.97
2023-01-01T07:06:38.782Z,48.78
2023-01-01T07:09:07.965Z,42.08
2023-01-01T07:11:36.068Z,45.85
2023-01-01T07:14:04.421Z,42.55
2023-01-01T07:16:32.023Z,40.53
2023-01-01T07:19:01.318Z,41.55
2023-01-01T07:21:39.771Z,42.22
2023-01-01T07:24:12.706Z,39.60
2023-01-01T07:26:41.270Z,44.10
2023-01-01T07:29:09.437Z,40.88
2023-01-01T07:31:39.918Z,37.80
2023-01-01T07:34:13.062Z,38.35
2023-01-01T07:36:41.352Z,41.97
2023-01-01T07:39:09.589Z,40.80
2023-01-01T07:41:37.370Z,39.78
2023-01-01T07:44:05.861Z,39.60
2023-01-01T07:46:36.372Z,35.03
2023-01-01T07:49:05.278Z,33.40
2023-01-01T07:51:32.799Z,30.60
2023-01-01T07:54:06.198Z,38.05
2023-01-01T07:56:36.185Z,39.53
2023-01-01T07:59:04.951Z,38.38
2023-01-01T08:01:35.982Z,41.17
2023-01-01T08:04:05.281Z,38.90
2023-01-01T08:06:32.920Z,37.33
2023-01-01T08:09:00.811Z,37.35
2023-01-01T08:11:29.441Z,38.80
2023-01-01T08:13:57.199Z,41.42
2023-01-01T08:16:24.807Z,44.78
2023-01-01T08:18:52.678Z,47.15
2023-01-01T08:21:20.251Z,48.58
2023-01-01T08:23:48.078Z,49.65
2023-01-01T08:26:17.463Z,49.25
2023-01-01T08:28:45.638Z,52.20
2023-01-01T08:31:13.252Z,49.20
2023-01-01T08:33:41.202Z,50.33
2023-01-01T08:36:13.213Z,49.38
2023-01-01T08:38:41.488Z,52.40
2023-01-01T08:41:09.492Z,52.35
2023-01-01T08:43:37.383Z,53.70
2023-01-01T08:46:05.351Z,52.80
2023-01-01T08:48:33.284Z,52.25
2023-01-01T08:51:01.954Z,54.03
2023-01-01T08:53:32.143Z,61.30
2023-01-01T08:56:06.658Z,61.40
2023-01-01T08:58:37.806Z,65.85
2023-01-01T09:01:07.546Z,64.47
2023-01-01T09:03:35.807Z,65.13
2023-01-01T09:06:03.663Z,66.07
2023-01-01T09:08:31.559Z,67.90
2023-01-01T09:11:02.695Z,64.38
2023-01-01T09:13:31.551Z,63.55
2023-01-01T09:15:59.726Z,54.70
2023-01-01T09:18:28.139Z,60.03
2023-01-01T09:20:55.648Z,64.18
2023-01-01T09:23:23.849Z,62.08
2023-01-01T09:25:52.064Z,64.85
2023-01-01T09:28:25.499Z,69.35
2023-01-01T09:30:53.633Z,66.47
2023-01-01T09:33:22.220Z,64.68
2023-01-01T09:35:50.081Z,61.90
2023-01-01T09:38:17.924Z,64.28
2023-01-01T09:41:14.682Z,61.45
2023-01-01T09:43:56.180Z,60.08
2023-01-01T09:46:31.397Z,58.40
2023-01-01T09:49:29.578Z,59.85
2023-01-01T09:52:01.405Z,56.47
2023-01-01T09:54:45.105Z,56.85
2023-01-01T09:57:19.837Z,56.35
2023-01-01T09:59:48.185Z,56.53
2023-01-01T10:02:30.676Z,54.25
2023-01-01T10:05:32.574Z,55.20
2023-01-01T10:08:32.054Z,54.53
2023-01-01T10:11:27.250Z,53.78
2023-01-01T10:13:59.824Z,51.78
2023-01-01T10:16:42.896Z,52.53
2023-01-01T10:19:47.443Z,51.70
2023-01-01T10:22:40.862Z,51.08
2023-01-01T10:25:26.349Z,54.42
2023-01-01T10:28:11.557Z,56.47
2023-01-01T10:30:42.361Z,51.97
2023-01-01T10:33:14.751Z,53.78
2023-01-01T10:35:48.859Z,53.85
2023-01-01T10:38:27.757Z,50.85
2023-01-01T10:41:12.226Z,48.25
2023-01-01T10:43:46.658Z,47.22
2023-01-01T10:46:19.464Z,45.00
2023-01-01T10:49:07.930Z,46.83
2023-01-01T10:51:42.822Z,45.53
2023-01-01T10:54:34.908Z,44.72
2023-01-01T10:57:30.403Z,42.83
2023-01-01T11:00:17.071Z,42.70
2023-01-01T11:02:45.006Z,41.13
2023-01-01T11:05:22.819Z,39.92
2023-01-01T11:07:50.762Z,36.47
2023-01-01T11:10:25.768Z,37.50
2023-01-01T11:13:10.098Z,35.90
2023-01-01T11:15:42.989Z,35.47
2023-01-01T11:18:17.509Z,34.45
2023-01-01T11:20:53.659Z,32.65
2023-01-01T11:23:41.514Z,31.65
2023-01-01T11:26:12.476Z,33.28
2023-01-01T11:28:41.747Z,33.03
2023-01-01T11:31:25.275Z,33.83
2023-01-01T11:33:56.761Z,39.08
2023-01-01T11:36:33.085Z,41.10
2023-01-01T11:39:29.042Z,33.88
2023-01-01T11:41:59.426Z,26.65
2023-01-01T11:44:52.031Z,24.77
2023-01-01T11:47:41.866Z,25.65
2023-01-01T11:50:54.742Z,24.45
2023-01-01T11:53:22.637Z,23.98
2023-01-01T11:56:02.107Z,25.20
2023-01-01T11:59:00.049Z,25.52
2023-01-01T12:01:53.692Z,24.65
2023-01-01T12:04:50.774Z,24.80
2023-01-01T12:07:29.824Z,26.13
2023-01-01T12:10:10.178Z,26.38
2023-01-01T12:12:48.747Z,21.92
2023-01-01T12:15:41.510Z,19.50
2023-01-01T12:18:24.957Z,19.85
2023-01-01T12:21:08.650Z,21.10
2023-01-01T12:23:36.975Z,20.38
2023-01-01T12:26:47.952Z,20.60
2023-01-01T12:29:58.128Z,20.70
2023-01-01T12:32:35.072Z,21.27
2023-01-01T12:35:43.123Z,19.42
2023-01-01T12:39:04.924Z,20.30
2023-01-01T12:41:51.480Z,19.15
2023-01-01T12:45:08.552Z,20.15
2023-01-01T12:48:03.315Z,17.17
2023-01-01T12:51:15.424Z,18.33
2023-01-01T12:54:24.402Z,18.27
2023-01-01T12:57:32.002Z,18.02
2023-01-01T13:00:20.758Z,17.33
2023-01-01T13:03:07.942Z,19.15
2023-01-01T13:05:49.781Z,18.58
2023-01-01T13:08:17.987Z,17.92
2023-01-01T13:10:52.197Z,16.98
2023-01-01T13:13:20.419Z,18.08
2023-01-01T13:15:56.832Z,18.55
2023-01-01T13:18:36.921Z,18.38
2023-01-01T13:21:21.626Z,19.73
2023-01-01T13:23:51.626Z,19.58
2023-01-01T13:26:19.152Z,19.33
2023-01-01T13:28:59.620Z,18.08
2023-01-01T13:34:35.795Z,19.63
2023-01-01T13:37:14.801Z,19.85
2023-01-01T13:40:04.562Z,20.35
2023-01-01T13:42:43.076Z,19.95
2023-01-01T13:46:10.580Z,22.23
2023-01-01T13:49:15.578Z,24.25
2023-01-01T13:52:27.121Z,23.55
2023-01-01T13:55:43.661Z,23.60
2023-01-01T13:58:39.100Z,23.10
2023-01-01T14:02:06.987Z,24.15
2023-01-01T14:04:54.691Z,23.30
2023-01-01T14:07:52.314Z,21.75
2023-01-01T14:10:23.434Z,21.20
2023-01-01T14:12:53.273Z,19.60
2023-01-01T14:15:40.028Z,22.17
2023-01-01T14:18:15.796Z,19.92
2023-01-01T14:20:53.619Z,21.02
2023-01-01T14:23:41.607Z,19.92
2023-01-01T14:26:15.215Z,21.67
2023-01-01T14:28:44.119Z,20.77
2023-01-01T14:31:19.299Z,21.15
2023-01-01T14:33:47.861Z,19.70
2023-01-01T14:36:25.395Z,22.35
2023-01-01T14:38:58.611Z,24.48
2023-01-01T14:41:38.775Z,24.63
2023-01-01T14:44:19.139Z,29.30
2023-01-01T14:46:53.805Z,31.10
2023-01-01T14:49:33.782Z,29.40
2023-01-01T14:52:09.693Z,32.75
2023-01-01T14:54:42.238Z,37.08
2023-01-01T14:57:32.464Z,41.17
2023-01-01T15:00:00.881Z,42.33
2023-01-01T15:02:33.163Z,43.22
2023-01-01T15:05:34.930Z,36.35
2023-01-01T15:08:07.292Z,32.92
2023-01-01T15:10:38.362Z,30.95
2023-01-01T15:13:08.477Z,34.38
2023-01-01T15:15:45.469Z,34.00
2023-01-01T15:18:43.369Z,35.47
2023-01-01T15:21:38.700Z,34.78
2023-01-01T15:24:15.995Z,46.17
2023-01-01T15:26:59.519Z,46.10
2023-01-01T15:29:40.517Z,54.65
2023-01-01T15:32:13.547Z,51.35
2023-01-01T15:34:41.370Z,56.50
2023-01-01T15:37:36.955Z,57.75
2023-01-01T15:40:24.840Z,53.03
2023-01-01T15:42:59.053Z,51.42
2023-01-01T15:45:32.005Z,52.17
2023-01-01T15:48:25.249Z,49.28
2023-01-01T15:50:53.116Z,47.90
2023-01-01T15:53:30.072Z,46.17
2023-01-01T15:56:09.394Z,44.08
2023-01-01T15:59:03.830Z,42.72
2023-01-01T16:01:38.824Z,44.08
2023-01-01T16:04:28.047Z,42.45
2023-01-01T16:06:58.879Z,41.80
2023-01-01T16:09:26.907Z,35.58
2023-01-01T16:11:57.605Z,34.05
2023-01-01T16:14:25.267Z,32.33
2023-01-01T16:17:00.964Z,32.28
2023-01-01T16:19:31.964Z,28.80
2023-01-01T16:21:59.847Z,26.33
2023-01-01T16:24:28.933Z,22.77
2023-01-01T16:29:24.259Z,21.02
2023-01-01T16:31:52.903Z,21.58
2023-01-01T16:34:20.521Z,21.38
2023-01-01T16:36:49.812Z,21.85
2023-01-01T16:39:17.582Z,22.40
2023-01-01T16:41:45.578Z,24.23
2023-01-01T16:44:16.744Z,24.85
2023-01-01T16:46:44.911Z,24.27
2023-01-01T16:49:12.725Z,28.83
2023-01-01T16:51:43.869Z,29.85
2023-01-01T16:54:12.126Z,32.63
2023-01-01T16:56:39.992Z,35.30
2023-01-01T16:59:07.838Z,35.08
2023-01-01T17:01:35.962Z,41.05
2023-01-01T17:04:03.739Z,42.55
2023-01-01T17:06:31.637Z,45.55
2023-01-01T17:09:00.730Z,47.65
2023-01-01T17:11:28.707Z,46.50
2023-01-01T17:13:59.701Z,44.17
2023-01-01T17:16:32.921Z,42.95
2023-01-01T17:19:21.667Z,42.77
2023-01-01T17:21:50.449Z,39.00
2023-01-01T17:24:20.471Z,37.50
2023-01-01T17:26:53.892Z,34.28
2023-01-01T17:29:22.611Z,31.95
2023-01-01T17:31:51.636Z,30.13
2023-01-01T17:34:19.985Z,27.60
2023-01-01T17:36:47.991Z,27.77
2023-01-01T17:39:16.436Z,25.15
2023-01-01T17:41:45.311Z,24.58
2023-01-01T17:44:13.761Z,27.27
2023-01-01T17:46:47.660Z,26.50
2023-01-01T17:49:21.886Z,29.35
2023-01-01T17:51:50.681Z,27.52
2023-01-01T17:54:18.459Z,26.30
2023-01-01T17:56:46.329Z,23.90
2023-01-01T17:59:36.287Z,26.80
2023-01-01T18:02:42.317Z,25.88
2023-01-01T18:05:12.851Z,26.70
2023-01-01T18:07:44.794Z,25.05
2023-01-01T18:10:12.418Z,22.25
2023-01-01T18:12:40.303Z,23.65
2023-01-01T18:15:08.821Z,22.30
2023-01-01T18:17:36.857Z,25.15
2023-01-01T18:20:05.240Z,24.42
2023-01-01T18:22:36.776Z,25.60
2023-01-01T18:25:09.097Z,29.33
2023-01-01T18:27:37.006Z,32.03
2023-01-01T18:30:05.983Z,29.73
2023-01-01T18:32:33.959Z,27.92
2023-01-01T18:35:02.024Z,30.25
2023-01-01T18:37:30.256Z,34.22
2023-01-01T18:39:59.507Z,28.40
2023-01-01T18:42:52.999Z,33.63
2023-01-01T18:45:23.934Z,33.85
2023-01-01T18:47:52.083Z,35.08
2023-01-01T18:50:29.844Z,23.50
2023-01-01T18:53:22.254Z,27.45
2023-01-01T18:55:54.024Z,25.13
2023-01-01T18:58:24.532Z,31.08
2023-01-01T19:00:54.041Z,29.83
2023-01-01T19:03:29.406Z,32.30
2023-01-01T19:05:59.410Z,27.27
2023-01-01T19:08:30.132Z,31.50
2023-01-01T19:11:02.601Z,34.40
2023-01-01T19:13:37.699Z,37.47
2023-01-01T19:16:29.104Z,35.08
2023-01-01T19:19:18.412Z,36.85
2023-01-01T19:21:51.857Z,50.13
2023-01-01T19:24:30.669Z,42.25
2023-01-01T19:27:18.940Z,41.03
2023-01-01T19:29:48.994Z,44.08
2023-01-01T19:32:17.024Z,42.83
2023-01-01T19:34:44.907Z,44.35
2023-01-01T19:37:12.538Z,43.10
2023-01-01T19:39:40.461Z,45.35
2023-01-01T19:42:08.176Z,47.72
2023-01-01T19:44:37.201Z,45.00
2023-01-01T19:47:05.258Z,44.20
2023-01-01T19:49:33.204Z,44.92
2023-01-01T19:52:00.748Z,43.70
2023-01-01T19:54:28.682Z,44.55
2023-01-01T19:56:57.261Z,44.55
2023-01-01T19:59:32.948Z,42.95
2023-01-01T20:04:50.599Z,43.47
2023-01-01T20:07:18.829Z,44.35
2023-01-01T20:09:46.471Z,44.78
2023-01-01T20:12:14.467Z,46.45
2023-01-01T20:14:42.095Z,46.17
2023-01-01T20:17:09.969Z,44.80
2023-01-01T20:19:39.088Z,45.20
2023-01-01T20:24:42.829Z,48.45
2023-01-01T20:27:12.187Z,47.20
2023-01-01T20:29:40.951Z,46.25
2023-01-01T20:32:12.697Z,44.90
2023-01-01T20:34:41.563Z,42.97
2023-01-01T20:37:28.469Z,43.05
2023-01-01T20:39:56.123Z,41.45
2023-01-01T20:42:24.363Z,43.20
2023-01-01T20:44:52.019Z,42.38
2023-01-01T20:47:19.976Z,28.75
2023-01-01T20:49:47.588Z,42.05
2023-01-01T20:52:16.853Z,41.28
2023-01-01T20:54:44.522Z,42.78
2023-01-01T20:57:12.796Z,48.38
2023-01-01T20:59:40.587Z,28.25
2023-01-01T21:02:12.186Z,23.10
2023-01-01T21:04:40.503Z,27.48
2023-01-01T21:07:12.826Z,30.75
2023-01-01T21:09:41.618Z,30.92
2023-01-01T21:12:11.829Z,37.45
2023-01-01T21:14:40.001Z,32.50
2023-01-01T21:17:29.471Z,35.13
2023-01-01T21:19:59.977Z,36.85
2023-01-01T21:22:28.150Z,42.60
2023-01-01T21:25:16.816Z,41.78
2023-01-01T21:27:45.904Z,40.95
2023-01-01T21:30:14.468Z,31.65
2023-01-01T21:32:49.943Z,33.33
2023-01-01T21:35:34.829Z,33.15
2023-01-01T21:38:16.607Z,36.05
2023-01-01T21:40:53.679Z,39.50
2023-01-01T21:43:24.127Z,42.10
2023-01-01T21:45:54.047Z,43.25
2023-01-01T21:48:32.260Z,39.95
2023-01-01T21:51:01.618Z,40.92
2023-01-01T21:53:34.746Z,38.97
2023-01-01T21:56:37.086Z,38.00
2023-01-01T21:59:28.722Z,37.42
2023-01-01T22:02:08.342Z,38.25
2023-01-01T22:04:46.450Z,39.08
2023-01-01T22:08:01.310Z,39.22
2023-01-01T22:10:36.198Z,40.13
2023-01-01T22:13:13.856Z,39.55
2023-01-01T22:15:44.127Z,39.72
2023-01-01T22:18:30.931Z,41.05
2023-01-01T22:21:02.700Z,38.75
2023-01-01T22:23:39.977Z,40.78
2023-01-01T22:26:18.582Z,38.65
2023-01-01T22:28:50.541Z,42.17
2023-01-01T22:31:26.780Z,38.70
2023-01-01T22:34:00.457Z,45.15
2023-01-01T22:36:34.029Z,45.08
2023-01-01T22:39:09.380Z,43.08
2023-01-01T22:41:37.601Z,46.97
2023-01-01T22:44:05.733Z,48.28
2023-01-01T22:46:40.984Z,47.37
2023-01-01T22:49:34.714Z,48.17
2023-01-01T22:52:04.619Z,45.22
2023-01-01T22:54:32.199Z,48.10
2023-01-01T22:57:00.105Z,47.20
2023-01-01T22:59:27.631Z,47.42
2023-01-01T23:01:55.525Z,47.55
2023-01-01T23:04:23.277Z,47.28
2023-01-01T23:06:51.677Z,48.58
2023-01-01T23:09:19.920Z,48.30
2023-01-01T23:11:47.973Z,49.22
2023-01-01T23:14:38.669Z,51.80
2023-01-01T23:17:07.675Z,52.53
2023-01-01T23:19:35.411Z,54.45
2023-01-01T23:22:04.345Z,54.47
2023-01-01T23:24:32.804Z,54.60
2023-01-01T23:27:01.990Z,52.10
2023-01-01T23:29:32.459Z,52.42
2023-01-01T23:32:02.002Z,55.65
2023-01-01T23:34:29.847Z,52.03
2023-01-01T23:36:58.624Z,51.70
2023-01-01T23:39:26.298Z,54.53
2023-01-01T23:41:54.260Z,50.47
2023-01-01T23:44:21.831Z,51.58
2023-01-01T23:46:49.947Z,49.88
2023-01-01T23:49:18.691Z,48.72
2023-01-01T23:51:46.839Z,47.30
2023-01-01T23:54:14.859Z,48.55
2023-01-01T23:56:44.460Z,47.15
2023-01-01T23:59:12.135Z,46.83
